King Corn — V7VQ5 — position and weather

sailwx.info

Track history (hours):
 
Tides and Currents Weather Stations Pressure Air Temp Water Temp Dewpoint Dewpoint Depression Visibility Wind Speed Wind Dir Waves Ship Positions

King Corn

Last reported at 2017-Oct-28 07:19 UTC. Time now 2017-Nov-21 04:51 UTC.
Position N 01°16' E 104°05'.
Warning: this ship's position is 23 days out of date.

Length 169 m; draft 5.5 m.

Type: Cargo ship. MMSI: 538004187.

Date/timePositionNaut miles runAvg speedWind from/ knotsBaromVisibWave heightAir tempDewpointWater temp
2017-Oct-28 07:19N 01°16' E 104°05'412.5
2017-Oct-28 06:59N 01°15' E 104°01'612.4
2017-Oct-28 06:31N 01°13' E 103°56'612.2
2017-Oct-28 06:01N 01°11' E 103°50'611.7
2017-Oct-28 05:30N 01°07' E 103°45'612.0
2017-Oct-28 04:59N 01°03' E 103°40'511.2
2017-Oct-28 04:30N 01°05' E 103°35'612.1
2017-Oct-28 04:01N 01°08' E 103°30'612.0
2017-Oct-28 03:30N 01°11' E 103°25'712.0
2017-Oct-28 02:55N 01°16' E 103°19'  
Track history (hours):
 
Tides and Currents Weather Stations Pressure Air Temp Water Temp Dewpoint Dewpoint Depression Visibility Wind Speed Wind Dir Waves Ship Positions

King Corn

Last reported at 2017-Oct-28 07:19 UTC. Time now 2017-Nov-21 04:51 UTC.
Position N 01°16' E 104°05'.
Warning: this ship's position is 23 days out of date.

Length 169 m; draft 5.5 m.

Type: Cargo ship. MMSI: 538004187.

Date/timePositionNaut miles runAvg speedWind from/ knotsBaromVisibWave heightAir tempDewpointWater temp
2017-Oct-28 07:19N 01°16' E 104°05'412.5
2017-Oct-28 06:59N 01°15' E 104°01'612.4
2017-Oct-28 06:31N 01°13' E 103°56'612.2
2017-Oct-28 06:01N 01°11' E 103°50'611.7
2017-Oct-28 05:30N 01°07' E 103°45'612.0
2017-Oct-28 04:59N 01°03' E 103°40'511.2
2017-Oct-28 04:30N 01°05' E 103°35'612.1
2017-Oct-28 04:01N 01°08' E 103°30'612.0
2017-Oct-28 03:30N 01°11' E 103°25'712.0
2017-Oct-28 02:55N 01°16' E 103°19'  

Dump ship's entire track history